sensor_id;sensor_type;location;lat;lon;timestamp;P1;durP1;ratioP1;P2;durP2;ratioP2
81124;SDS011;72192;52.114;5.424;2024-03-06T00:01:55;30.77;;;15.20;;
81124;SDS011;72192;52.114;5.424;2024-03-06T00:04:22;31.92;;;18.05;;
81124;SDS011;72192;52.114;5.424;2024-03-06T00:06:50;28.73;;;16.73;;
81124;SDS011;72192;52.114;5.424;2024-03-06T00:09:26;29.27;;;16.13;;
81124;SDS011;72192;52.114;5.424;2024-03-06T00:11:55;33.90;;;16.98;;
81124;SDS011;72192;52.114;5.424;2024-03-06T00:14:23;28.48;;;15.13;;
81124;SDS011;72192;52.114;5.424;2024-03-06T00:16:50;27.45;;;14.85;;
81124;SDS011;72192;52.114;5.424;2024-03-06T00:26:55;23.33;;;13.20;;
81124;SDS011;72192;52.114;5.424;2024-03-06T00:29:25;24.55;;;12.75;;
81124;SDS011;72192;52.114;5.424;2024-03-06T00:31:55;17.02;;;10.07;;
81124;SDS011;72192;52.114;5.424;2024-03-06T00:36:57;17.92;;;10.95;;
81124;SDS011;72192;52.114;5.424;2024-03-06T00:41:59;30.20;;;10.10;;
81124;SDS011;72192;52.114;5.424;2024-03-06T00:44:26;20.48;;;10.77;;
81124;SDS011;72192;52.114;5.424;2024-03-06T00:46:57;20.65;;;10.93;;
81124;SDS011;72192;52.114;5.424;2024-03-06T00:49:26;17.58;;;10.13;;
81124;SDS011;72192;52.114;5.424;2024-03-06T00:51:54;19.88;;;11.85;;
81124;SDS011;72192;52.114;5.424;2024-03-06T00:59:22;24.20;;;13.05;;
81124;SDS011;72192;52.114;5.424;2024-03-06T01:01:56;24.93;;;12.67;;
81124;SDS011;72192;52.114;5.424;2024-03-06T01:04:24;26.45;;;13.90;;
81124;SDS011;72192;52.114;5.424;2024-03-06T01:06:51;24.80;;;13.60;;
81124;SDS011;72192;52.114;5.424;2024-03-06T01:09:19;24.35;;;13.10;;
81124;SDS011;72192;52.114;5.424;2024-03-06T01:14:24;22.55;;;12.68;;
81124;SDS011;72192;52.114;5.424;2024-03-06T01:16:55;18.50;;;10.85;;
81124;SDS011;72192;52.114;5.424;2024-03-06T01:19:26;15.05;;;8.82;;
81124;SDS011;72192;52.114;5.424;2024-03-06T01:21:55;15.00;;;8.85;;
81124;SDS011;72192;52.114;5.424;2024-03-06T01:26:50;14.57;;;9.20;;
81124;SDS011;72192;52.114;5.424;2024-03-06T01:29:16;14.20;;;8.98;;
81124;SDS011;72192;52.114;5.424;2024-03-06T01:31:46;16.92;;;9.20;;
81124;SDS011;72192;52.114;5.424;2024-03-06T01:36:44;15.73;;;10.23;;
81124;SDS011;72192;52.114;5.424;2024-03-06T01:39:11;15.82;;;9.25;;
81124;SDS011;72192;52.114;5.424;2024-03-06T01:44:08;20.45;;;11.45;;
81124;SDS011;72192;52.114;5.424;2024-03-06T01:46:35;21.33;;;12.35;;
81124;SDS011;72192;52.114;5.424;2024-03-06T01:49:02;26.45;;;13.13;;
81124;SDS011;72192;52.114;5.424;2024-03-06T01:51:31;18.05;;;10.65;;
81124;SDS011;72192;52.114;5.424;2024-03-06T01:54:00;22.40;;;12.80;;
81124;SDS011;72192;52.114;5.424;2024-03-06T01:56:33;19.48;;;11.00;;
81124;SDS011;72192;52.114;5.424;2024-03-06T01:59:03;19.30;;;11.43;;
81124;SDS011;72192;52.114;5.424;2024-03-06T02:01:32;20.42;;;11.82;;
81124;SDS011;72192;52.114;5.424;2024-03-06T02:04:01;26.50;;;12.95;;
81124;SDS011;72192;52.114;5.424;2024-03-06T02:06:31;84.70;;;10.50;;
81124;SDS011;72192;52.114;5.424;2024-03-06T02:11:37;42.20;;;9.07;;
81124;SDS011;72192;52.114;5.424;2024-03-06T02:14:06;320.20;;;28.75;;
81124;SDS011;72192;52.114;5.424;2024-03-06T02:16:36;27.48;;;8.93;;
81124;SDS011;72192;52.114;5.424;2024-03-06T02:19:05;24.75;;;9.45;;
81124;SDS011;72192;52.114;5.424;2024-03-06T02:21:32;14.60;;;8.48;;
81124;SDS011;72192;52.114;5.424;2024-03-06T02:23:59;15.93;;;9.98;;
81124;SDS011;72192;52.114;5.424;2024-03-06T02:31:35;157.30;;;15.05;;
81124;SDS011;72192;52.114;5.424;2024-03-06T02:34:02;102.53;;;13.65;;
81124;SDS011;72192;52.114;5.424;2024-03-06T02:39:00;196.38;;;18.80;;
81124;SDS011;72192;52.114;5.424;2024-03-06T02:43:55;82.28;;;11.48;;
81124;SDS011;72192;52.114;5.424;2024-03-06T02:46:25;92.80;;;11.10;;
81124;SDS011;72192;52.114;5.424;2024-03-06T02:48:54;39.20;;;9.70;;
81124;SDS011;72192;52.114;5.424;2024-03-06T02:51:22;62.00;;;8.65;;
81124;SDS011;72192;52.114;5.424;2024-03-06T02:53:51;64.72;;;8.52;;
81124;SDS011;72192;52.114;5.424;2024-03-06T02:56:19;42.47;;;7.90;;
81124;SDS011;72192;52.114;5.424;2024-03-06T03:01:16;28.38;;;7.07;;
81124;SDS011;72192;52.114;5.424;2024-03-06T03:03:49;15.80;;;7.15;;
81124;SDS011;72192;52.114;5.424;2024-03-06T03:06:17;24.02;;;6.90;;
81124;SDS011;72192;52.114;5.424;2024-03-06T03:08:44;47.92;;;8.32;;
81124;SDS011;72192;52.114;5.424;2024-03-06T03:11:11;19.38;;;7.65;;
81124;SDS011;72192;52.114;5.424;2024-03-06T03:13:40;12.00;;;6.47;;
81124;SDS011;72192;52.114;5.424;2024-03-06T03:18:35;16.27;;;8.57;;
81124;SDS011;72192;52.114;5.424;2024-03-06T03:21:03;16.25;;;7.88;;
81124;SDS011;72192;52.114;5.424;2024-03-06T03:23:36;14.82;;;7.78;;
81124;SDS011;72192;52.114;5.424;2024-03-06T03:26:03;12.75;;;7.38;;
81124;SDS011;72192;52.114;5.424;2024-03-06T03:28:30;12.68;;;6.28;;
81124;SDS011;72192;52.114;5.424;2024-03-06T03:30:57;17.10;;;6.07;;
81124;SDS011;72192;52.114;5.424;2024-03-06T03:33:27;34.60;;;6.60;;
81124;SDS011;72192;52.114;5.424;2024-03-06T03:35:54;24.42;;;7.60;;
81124;SDS011;72192;52.114;5.424;2024-03-06T03:38:21;43.05;;;7.20;;
81124;SDS011;72192;52.114;5.424;2024-03-06T03:40:48;39.50;;;8.15;;
81124;SDS011;72192;52.114;5.424;2024-03-06T03:43:20;31.48;;;7.70;;
81124;SDS011;72192;52.114;5.424;2024-03-06T03:45:47;76.30;;;11.07;;
81124;SDS011;72192;52.114;5.424;2024-03-06T03:50:42;18.15;;;7.53;;
81124;SDS011;72192;52.114;5.424;2024-03-06T03:55:39;17.08;;;8.95;;
81124;SDS011;72192;52.114;5.424;2024-03-06T03:58:09;17.25;;;8.63;;
81124;SDS011;72192;52.114;5.424;2024-03-06T04:00:38;13.85;;;8.32;;
81124;SDS011;72192;52.114;5.424;2024-03-06T04:03:05;45.15;;;10.13;;
81124;SDS011;72192;52.114;5.424;2024-03-06T04:08:03;30.73;;;10.50;;
81124;SDS011;72192;52.114;5.424;2024-03-06T04:13:12;32.58;;;9.85;;
81124;SDS011;72192;52.114;5.424;2024-03-06T04:15:41;33.90;;;9.75;;
81124;SDS011;72192;52.114;5.424;2024-03-06T04:18:12;61.20;;;9.98;;
81124;SDS011;72192;52.114;5.424;2024-03-06T04:23:12;127.15;;;14.38;;
81124;SDS011;72192;52.114;5.424;2024-03-06T04:25:41;180.82;;;18.10;;
81124;SDS011;72192;52.114;5.424;2024-03-06T04:28:08;116.82;;;14.05;;
81124;SDS011;72192;52.114;5.424;2024-03-06T04:30:37;47.78;;;10.00;;
81124;SDS011;72192;52.114;5.424;2024-03-06T04:33:04;56.00;;;10.32;;
81124;SDS011;72192;52.114;5.424;2024-03-06T04:35:31;32.72;;;10.07;;
81124;SDS011;72192;52.114;5.424;2024-03-06T04:38:03;27.27;;;9.05;;
81124;SDS011;72192;52.114;5.424;2024-03-06T04:42:59;41.38;;;9.98;;
81124;SDS011;72192;52.114;5.424;2024-03-06T04:53:03;64.70;;;12.68;;
81124;SDS011;72192;52.114;5.424;2024-03-06T04:58:00;29.10;;;8.52;;
81124;SDS011;72192;52.114;5.424;2024-03-06T05:00:27;30.73;;;8.25;;
81124;SDS011;72192;52.114;5.424;2024-03-06T05:05:40;38.80;;;9.13;;
81124;SDS011;72192;52.114;5.424;2024-03-06T05:08:22;38.85;;;9.90;;
81124;SDS011;72192;52.114;5.424;2024-03-06T05:11:04;31.40;;;10.50;;
81124;SDS011;72192;52.114;5.424;2024-03-06T05:13:45;45.95;;;12.20;;
81124;SDS011;72192;52.114;5.424;2024-03-06T05:19:08;64.95;;;12.85;;
81124;SDS011;72192;52.114;5.424;2024-03-06T05:24:31;64.68;;;9.75;;
81124;SDS011;72192;52.114;5.424;2024-03-06T05:27:16;115.75;;;14.00;;
81124;SDS011;72192;52.114;5.424;2024-03-06T05:29:58;88.37;;;14.50;;
81124;SDS011;72192;52.114;5.424;2024-03-06T05:32:39;87.43;;;13.77;;
81124;SDS011;72192;52.114;5.424;2024-03-06T05:35:20;82.45;;;13.40;;
81124;SDS011;72192;52.114;5.424;2024-03-06T05:38:01;67.05;;;12.25;;
81124;SDS011;72192;52.114;5.424;2024-03-06T05:43:29;69.80;;;10.20;;
81124;SDS011;72192;52.114;5.424;2024-03-06T05:46:10;108.40;;;13.75;;
81124;SDS011;72192;52.114;5.424;2024-03-06T05:48:51;63.38;;;12.68;;
81124;SDS011;72192;52.114;5.424;2024-03-06T05:51:38;58.00;;;8.77;;
81124;SDS011;72192;52.114;5.424;2024-03-06T05:54:22;97.35;;;8.85;;
81124;SDS011;72192;52.114;5.424;2024-03-06T05:57:04;104.15;;;9.23;;
81124;SDS011;72192;52.114;5.424;2024-03-06T05:59:45;68.25;;;10.70;;
81124;SDS011;72192;52.114;5.424;2024-03-06T06:02:16;60.40;;;10.43;;
81124;SDS011;72192;52.114;5.424;2024-03-06T06:07:27;95.72;;;10.63;;
81124;SDS011;72192;52.114;5.424;2024-03-06T06:09:55;106.20;;;11.02;;
81124;SDS011;72192;52.114;5.424;2024-03-06T06:12:22;95.07;;;12.48;;
81124;SDS011;72192;52.114;5.424;2024-03-06T06:19:55;71.63;;;13.10;;
81124;SDS011;72192;52.114;5.424;2024-03-06T06:22:22;140.88;;;16.70;;
81124;SDS011;72192;52.114;5.424;2024-03-06T06:24:49;122.40;;;16.65;;
81124;SDS011;72192;52.114;5.424;2024-03-06T06:27:16;191.63;;;19.80;;
81124;SDS011;72192;52.114;5.424;2024-03-06T06:32:18;159.18;;;18.30;;
81124;SDS011;72192;52.114;5.424;2024-03-06T06:39:50;115.33;;;11.73;;
81124;SDS011;72192;52.114;5.424;2024-03-06T06:42:25;143.52;;;15.00;;
81124;SDS011;72192;52.114;5.424;2024-03-06T06:44:55;90.45;;;12.73;;
81124;SDS011;72192;52.114;5.424;2024-03-06T06:47:24;180.75;;;19.20;;
81124;SDS011;72192;52.114;5.424;2024-03-06T06:55:42;178.00;;;19.00;;
81124;SDS011;72192;52.114;5.424;2024-03-06T06:58:09;122.70;;;14.80;;
81124;SDS011;72192;52.114;5.424;2024-03-06T07:03:16;184.85;;;18.80;;
81124;SDS011;72192;52.114;5.424;2024-03-06T07:05:43;175.65;;;21.85;;
81124;SDS011;72192;52.114;5.424;2024-03-06T07:10:44;155.18;;;17.90;;
81124;SDS011;72192;52.114;5.424;2024-03-06T07:13:11;167.20;;;20.58;;
81124;SDS011;72192;52.114;5.424;2024-03-06T07:15:38;91.13;;;16.25;;
81124;SDS011;72192;52.114;5.424;2024-03-06T07:18:08;62.88;;;15.18;;
81124;SDS011;72192;52.114;5.424;2024-03-06T07:20:35;105.95;;;18.08;;
81124;SDS011;72192;52.114;5.424;2024-03-06T07:23:04;96.00;;;16.88;;
81124;SDS011;72192;52.114;5.424;2024-03-06T07:25:37;86.68;;;16.83;;
81124;SDS011;72192;52.114;5.424;2024-03-06T07:28:04;90.15;;;16.23;;
81124;SDS011;72192;52.114;5.424;2024-03-06T07:30:31;110.15;;;17.73;;
81124;SDS011;72192;52.114;5.424;2024-03-06T07:32:58;106.10;;;17.38;;
81124;SDS011;72192;52.114;5.424;2024-03-06T07:35:25;159.60;;;19.88;;
81124;SDS011;72192;52.114;5.424;2024-03-06T07:37:53;110.00;;;19.45;;
81124;SDS011;72192;52.114;5.424;2024-03-06T07:40:19;81.90;;;17.50;;
81124;SDS011;72192;52.114;5.424;2024-03-06T07:42:46;78.40;;;17.58;;
81124;SDS011;72192;52.114;5.424;2024-03-06T07:45:14;98.15;;;20.40;;
81124;SDS011;72192;52.114;5.424;2024-03-06T07:47:41;62.13;;;16.95;;
81124;SDS011;72192;52.114;5.424;2024-03-06T07:52:49;46.67;;;16.33;;
81124;SDS011;72192;52.114;5.424;2024-03-06T07:55:16;42.08;;;15.48;;
81124;SDS011;72192;52.114;5.424;2024-03-06T07:57:45;53.65;;;17.08;;
81124;SDS011;72192;52.114;5.424;2024-03-06T08:00:13;56.35;;;17.50;;
81124;SDS011;72192;52.114;5.424;2024-03-06T08:02:47;59.53;;;17.60;;
81124;SDS011;72192;52.114;5.424;2024-03-06T08:05:17;43.40;;;15.48;;
81124;SDS011;72192;52.114;5.424;2024-03-06T08:07:44;41.80;;;17.52;;
81124;SDS011;72192;52.114;5.424;2024-03-06T08:10:18;67.25;;;18.30;;
81124;SDS011;72192;52.114;5.424;2024-03-06T08:12:52;47.92;;;17.38;;
81124;SDS011;72192;52.114;5.424;2024-03-06T08:15:19;57.65;;;18.02;;
81124;SDS011;72192;52.114;5.424;2024-03-06T08:17:48;59.80;;;17.77;;
81124;SDS011;72192;52.114;5.424;2024-03-06T08:20:16;59.17;;;17.52;;
81124;SDS011;72192;52.114;5.424;2024-03-06T08:22:44;50.00;;;16.83;;
81124;SDS011;72192;52.114;5.424;2024-03-06T08:25:12;85.30;;;22.40;;
81124;SDS011;72192;52.114;5.424;2024-03-06T08:27:40;62.80;;;19.20;;
81124;SDS011;72192;52.114;5.424;2024-03-06T08:30:10;80.65;;;22.30;;
81124;SDS011;72192;52.114;5.424;2024-03-06T08:32:38;52.88;;;18.48;;
81124;SDS011;72192;52.114;5.424;2024-03-06T08:35:06;59.13;;;18.80;;
81124;SDS011;72192;52.114;5.424;2024-03-06T08:37:39;71.82;;;21.25;;
81124;SDS011;72192;52.114;5.424;2024-03-06T08:40:07;50.17;;;18.60;;
81124;SDS011;72192;52.114;5.424;2024-03-06T08:42:41;63.90;;;19.65;;
81124;SDS011;72192;52.114;5.424;2024-03-06T08:45:09;73.82;;;19.45;;
81124;SDS011;72192;52.114;5.424;2024-03-06T08:47:41;62.83;;;20.42;;
81124;SDS011;72192;52.114;5.424;2024-03-06T08:50:13;48.40;;;19.83;;
81124;SDS011;72192;52.114;5.424;2024-03-06T08:52:40;81.43;;;21.05;;
81124;SDS011;72192;52.114;5.424;2024-03-06T08:55:10;51.72;;;18.90;;
81124;SDS011;72192;52.114;5.424;2024-03-06T08:57:38;50.92;;;19.83;;
81124;SDS011;72192;52.114;5.424;2024-03-06T09:00:07;66.00;;;21.88;;
81124;SDS011;72192;52.114;5.424;2024-03-06T09:05:26;64.55;;;21.77;;
81124;SDS011;72192;52.114;5.424;2024-03-06T09:07:54;43.65;;;19.52;;
81124;SDS011;72192;52.114;5.424;2024-03-06T09:10:22;47.70;;;19.80;;
81124;SDS011;72192;52.114;5.424;2024-03-06T09:12:49;46.08;;;19.60;;
81124;SDS011;72192;52.114;5.424;2024-03-06T09:15:16;43.67;;;19.48;;
81124;SDS011;72192;52.114;5.424;2024-03-06T09:17:45;53.17;;;19.85;;
81124;SDS011;72192;52.114;5.424;2024-03-06T09:20:25;51.88;;;22.00;;
81124;SDS011;72192;52.114;5.424;2024-03-06T09:22:53;33.72;;;18.02;;
81124;SDS011;72192;52.114;5.424;2024-03-06T09:25:23;35.00;;;17.15;;
81124;SDS011;72192;52.114;5.424;2024-03-06T09:27:55;35.63;;;17.77;;
81124;SDS011;72192;52.114;5.424;2024-03-06T09:30:26;36.95;;;18.08;;
81124;SDS011;72192;52.114;5.424;2024-03-06T09:32:54;37.03;;;18.15;;
81124;SDS011;72192;52.114;5.424;2024-03-06T09:35:37;34.33;;;17.38;;
81124;SDS011;72192;52.114;5.424;2024-03-06T09:38:05;38.78;;;18.25;;
81124;SDS011;72192;52.114;5.424;2024-03-06T09:40:32;34.67;;;16.83;;
81124;SDS011;72192;52.114;5.424;2024-03-06T09:45:37;30.80;;;14.77;;
81124;SDS011;72192;52.114;5.424;2024-03-06T09:50:48;35.10;;;17.50;;
81124;SDS011;72192;52.114;5.424;2024-03-06T09:53:18;38.75;;;17.08;;
81124;SDS011;72192;52.114;5.424;2024-03-06T09:55:49;34.85;;;17.65;;
81124;SDS011;72192;52.114;5.424;2024-03-06T09:58:19;34.88;;;17.35;;
81124;SDS011;72192;52.114;5.424;2024-03-06T10:00:49;29.98;;;15.50;;
81124;SDS011;72192;52.114;5.424;2024-03-06T10:03:16;29.58;;;14.73;;
81124;SDS011;72192;52.114;5.424;2024-03-06T10:08:50;34.00;;;18.65;;
81124;SDS011;72192;52.114;5.424;2024-03-06T10:11:17;32.53;;;17.60;;
81124;SDS011;72192;52.114;5.424;2024-03-06T10:13:44;32.25;;;15.98;;
81124;SDS011;72192;52.114;5.424;2024-03-06T10:16:12;27.63;;;15.15;;
81124;SDS011;72192;52.114;5.424;2024-03-06T10:21:15;30.40;;;15.40;;
81124;SDS011;72192;52.114;5.424;2024-03-06T10:23:44;31.80;;;16.48;;
81124;SDS011;72192;52.114;5.424;2024-03-06T10:26:14;31.30;;;16.80;;
81124;SDS011;72192;52.114;5.424;2024-03-06T10:28:44;33.50;;;17.10;;
81124;SDS011;72192;52.114;5.424;2024-03-06T10:31:11;30.60;;;16.00;;
81124;SDS011;72192;52.114;5.424;2024-03-06T10:33:43;30.27;;;16.73;;
81124;SDS011;72192;52.114;5.424;2024-03-06T10:36:11;34.47;;;17.58;;
81124;SDS011;72192;52.114;5.424;2024-03-06T10:38:38;29.98;;;14.95;;
81124;SDS011;72192;52.114;5.424;2024-03-06T10:41:12;30.60;;;16.17;;
81124;SDS011;72192;52.114;5.424;2024-03-06T10:46:24;29.23;;;15.73;;
81124;SDS011;72192;52.114;5.424;2024-03-06T10:48:57;27.15;;;14.88;;
81124;SDS011;72192;52.114;5.424;2024-03-06T10:51:26;28.00;;;14.57;;
81124;SDS011;72192;52.114;5.424;2024-03-06T10:53:57;28.73;;;16.73;;
81124;SDS011;72192;52.114;5.424;2024-03-06T10:56:30;31.63;;;16.33;;
81124;SDS011;72192;52.114;5.424;2024-03-06T10:58:58;29.67;;;16.02;;
81124;SDS011;72192;52.114;5.424;2024-03-06T11:01:26;25.75;;;14.32;;
81124;SDS011;72192;52.114;5.424;2024-03-06T11:06:49;24.73;;;13.35;;
81124;SDS011;72192;52.114;5.424;2024-03-06T11:09:19;25.48;;;14.90;;
81124;SDS011;72192;52.114;5.424;2024-03-06T11:11:48;25.20;;;13.52;;
81124;SDS011;72192;52.114;5.424;2024-03-06T11:14:40;26.38;;;14.55;;
81124;SDS011;72192;52.114;5.424;2024-03-06T11:28:17;26.10;;;14.50;;
81124;SDS011;72192;52.114;5.424;2024-03-06T11:33:41;24.75;;;13.68;;
81124;SDS011;72192;52.114;5.424;2024-03-06T11:39:05;28.45;;;14.27;;
81124;SDS011;72192;52.114;5.424;2024-03-06T11:44:12;23.45;;;12.43;;
81124;SDS011;72192;52.114;5.424;2024-03-06T11:47:00;24.00;;;13.10;;
81124;SDS011;72192;52.114;5.424;2024-03-06T11:54:58;24.42;;;14.35;;
81124;SDS011;72192;52.114;5.424;2024-03-06T11:57:25;23.20;;;12.80;;
81124;SDS011;72192;52.114;5.424;2024-03-06T11:59:52;23.95;;;12.65;;
81124;SDS011;72192;52.114;5.424;2024-03-06T12:02:19;24.25;;;13.10;;
81124;SDS011;72192;52.114;5.424;2024-03-06T12:04:52;23.83;;;11.82;;
81124;SDS011;72192;52.114;5.424;2024-03-06T12:07:24;25.10;;;12.75;;
81124;SDS011;72192;52.114;5.424;2024-03-06T12:09:54;23.95;;;13.57;;
81124;SDS011;72192;52.114;5.424;2024-03-06T12:12:24;19.92;;;11.57;;
81124;SDS011;72192;52.114;5.424;2024-03-06T12:14:58;21.73;;;12.25;;
81124;SDS011;72192;52.114;5.424;2024-03-06T12:17:26;21.05;;;12.30;;
81124;SDS011;72192;52.114;5.424;2024-03-06T12:19:54;27.88;;;12.55;;
81124;SDS011;72192;52.114;5.424;2024-03-06T12:22:25;21.27;;;11.07;;
81124;SDS011;72192;52.114;5.424;2024-03-06T12:24:59;20.65;;;10.85;;
81124;SDS011;72192;52.114;5.424;2024-03-06T12:27:27;19.25;;;10.95;;
81124;SDS011;72192;52.114;5.424;2024-03-06T12:29:54;21.17;;;11.65;;
81124;SDS011;72192;52.114;5.424;2024-03-06T12:32:22;18.90;;;10.05;;
81124;SDS011;72192;52.114;5.424;2024-03-06T12:35:00;16.50;;;9.15;;
81124;SDS011;72192;52.114;5.424;2024-03-06T12:37:28;15.80;;;9.27;;
81124;SDS011;72192;52.114;5.424;2024-03-06T12:40:00;15.73;;;8.50;;
81124;SDS011;72192;52.114;5.424;2024-03-06T12:42:31;15.70;;;8.98;;
81124;SDS011;72192;52.114;5.424;2024-03-06T12:44:59;16.52;;;9.57;;
81124;SDS011;72192;52.114;5.424;2024-03-06T12:47:26;14.43;;;8.38;;
81124;SDS011;72192;52.114;5.424;2024-03-06T12:49:53;14.38;;;8.90;;
81124;SDS011;72192;52.114;5.424;2024-03-06T12:52:21;12.85;;;7.93;;
81124;SDS011;72192;52.114;5.424;2024-03-06T12:54:52;13.45;;;7.75;;
81124;SDS011;72192;52.114;5.424;2024-03-06T12:57:19;14.25;;;7.78;;
81124;SDS011;72192;52.114;5.424;2024-03-06T12:59:46;12.02;;;7.43;;
81124;SDS011;72192;52.114;5.424;2024-03-06T13:02:13;11.65;;;6.60;;
81124;SDS011;72192;52.114;5.424;2024-03-06T13:04:40;12.75;;;8.07;;
81124;SDS011;72192;52.114;5.424;2024-03-06T13:07:09;12.57;;;7.70;;
81124;SDS011;72192;52.114;5.424;2024-03-06T13:09:37;15.20;;;8.85;;
81124;SDS011;72192;52.114;5.424;2024-03-06T13:12:12;13.40;;;7.97;;
81124;SDS011;72192;52.114;5.424;2024-03-06T13:14:42;11.40;;;6.32;;
81124;SDS011;72192;52.114;5.424;2024-03-06T13:17:16;10.98;;;6.00;;
81124;SDS011;72192;52.114;5.424;2024-03-06T13:19:43;11.80;;;7.13;;
81124;SDS011;72192;52.114;5.424;2024-03-06T13:22:27;12.73;;;7.75;;
81124;SDS011;72192;52.114;5.424;2024-03-06T13:24:54;14.65;;;7.50;;
81124;SDS011;72192;52.114;5.424;2024-03-06T13:29:50;15.63;;;8.32;;
81124;SDS011;72192;52.114;5.424;2024-03-06T13:32:17;14.20;;;8.18;;
81124;SDS011;72192;52.114;5.424;2024-03-06T13:34:47;13.70;;;7.63;;
81124;SDS011;72192;52.114;5.424;2024-03-06T13:37:15;13.75;;;8.10;;
81124;SDS011;72192;52.114;5.424;2024-03-06T13:42:29;14.07;;;7.57;;
81124;SDS011;72192;52.114;5.424;2024-03-06T13:44:56;14.13;;;8.30;;
81124;SDS011;72192;52.114;5.424;2024-03-06T13:47:24;15.07;;;7.85;;
81124;SDS011;72192;52.114;5.424;2024-03-06T13:52:38;13.48;;;8.02;;
81124;SDS011;72192;52.114;5.424;2024-03-06T13:55:10;14.95;;;8.05;;
81124;SDS011;72192;52.114;5.424;2024-03-06T13:57:37;15.13;;;7.32;;
81124;SDS011;72192;52.114;5.424;2024-03-06T14:00:10;16.35;;;8.32;;
81124;SDS011;72192;52.114;5.424;2024-03-06T14:02:47;14.18;;;7.93;;
81124;SDS011;72192;52.114;5.424;2024-03-06T14:05:16;14.48;;;7.32;;
81124;SDS011;72192;52.114;5.424;2024-03-06T14:07:45;15.13;;;8.32;;
81124;SDS011;72192;52.114;5.424;2024-03-06T14:10:12;15.07;;;7.53;;
81124;SDS011;72192;52.114;5.424;2024-03-06T14:12:41;15.20;;;7.90;;
81124;SDS011;72192;52.114;5.424;2024-03-06T14:15:11;15.85;;;7.70;;
81124;SDS011;72192;52.114;5.424;2024-03-06T14:17:39;13.82;;;7.35;;
81124;SDS011;72192;52.114;5.424;2024-03-06T14:20:07;16.85;;;8.20;;
81124;SDS011;72192;52.114;5.424;2024-03-06T14:22:40;15.20;;;7.38;;
81124;SDS011;72192;52.114;5.424;2024-03-06T14:25:18;15.60;;;7.72;;
81124;SDS011;72192;52.114;5.424;2024-03-06T14:27:45;15.00;;;7.90;;
81124;SDS011;72192;52.114;5.424;2024-03-06T14:30:17;12.77;;;6.90;;
81124;SDS011;72192;52.114;5.424;2024-03-06T14:32:46;13.95;;;7.20;;
81124;SDS011;72192;52.114;5.424;2024-03-06T14:35:21;13.55;;;7.10;;
81124;SDS011;72192;52.114;5.424;2024-03-06T14:37:48;13.48;;;6.82;;
81124;SDS011;72192;52.114;5.424;2024-03-06T14:40:18;12.98;;;7.38;;
81124;SDS011;72192;52.114;5.424;2024-03-06T14:42:45;12.93;;;7.05;;
81124;SDS011;72192;52.114;5.424;2024-03-06T14:45:25;14.73;;;7.10;;
81124;SDS011;72192;52.114;5.424;2024-03-06T14:47:56;13.40;;;7.80;;
81124;SDS011;72192;52.114;5.424;2024-03-06T14:50:28;14.20;;;7.28;;
81124;SDS011;72192;52.114;5.424;2024-03-06T14:55:34;14.90;;;7.00;;
81124;SDS011;72192;52.114;5.424;2024-03-06T15:00:41;13.35;;;6.68;;
81124;SDS011;72192;52.114;5.424;2024-03-06T15:03:09;12.75;;;6.65;;
81124;SDS011;72192;52.114;5.424;2024-03-06T15:05:36;12.38;;;6.70;;
81124;SDS011;72192;52.114;5.424;2024-03-06T15:08:03;13.55;;;7.07;;
81124;SDS011;72192;52.114;5.424;2024-03-06T15:13:07;12.70;;;5.82;;
81124;SDS011;72192;52.114;5.424;2024-03-06T15:15:45;16.23;;;7.00;;
81124;SDS011;72192;52.114;5.424;2024-03-06T15:18:28;11.00;;;6.30;;
81124;SDS011;72192;52.114;5.424;2024-03-06T15:20:56;13.68;;;6.10;;
81124;SDS011;72192;52.114;5.424;2024-03-06T15:23:25;10.63;;;6.20;;
81124;SDS011;72192;52.114;5.424;2024-03-06T15:25:55;13.82;;;6.07;;
81124;SDS011;72192;52.114;5.424;2024-03-06T15:28:22;11.98;;;6.15;;
81124;SDS011;72192;52.114;5.424;2024-03-06T15:30:49;12.73;;;6.03;;
81124;SDS011;72192;52.114;5.424;2024-03-06T15:33:23;14.00;;;7.00;;
81124;SDS011;72192;52.114;5.424;2024-03-06T15:35:50;12.25;;;6.40;;
81124;SDS011;72192;52.114;5.424;2024-03-06T15:38:20;14.48;;;7.10;;
81124;SDS011;72192;52.114;5.424;2024-03-06T15:40:47;12.60;;;6.38;;
81124;SDS011;72192;52.114;5.424;2024-03-06T15:43:18;13.55;;;5.97;;
81124;SDS011;72192;52.114;5.424;2024-03-06T15:45:45;14.18;;;6.90;;
81124;SDS011;72192;52.114;5.424;2024-03-06T15:48:14;13.23;;;6.45;;
81124;SDS011;72192;52.114;5.424;2024-03-06T15:50:42;12.43;;;6.93;;
81124;SDS011;72192;52.114;5.424;2024-03-06T15:53:10;14.55;;;6.78;;
81124;SDS011;72192;52.114;5.424;2024-03-06T15:55:38;12.63;;;6.20;;
81124;SDS011;72192;52.114;5.424;2024-03-06T15:58:23;13.80;;;6.65;;
81124;SDS011;72192;52.114;5.424;2024-03-06T16:00:52;15.63;;;6.55;;
81124;SDS011;72192;52.114;5.424;2024-03-06T16:03:37;13.98;;;5.97;;
81124;SDS011;72192;52.114;5.424;2024-03-06T16:06:06;16.52;;;9.13;;
81124;SDS011;72192;52.114;5.424;2024-03-06T16:08:44;12.32;;;6.75;;
81124;SDS011;72192;52.114;5.424;2024-03-06T16:21:26;15.60;;;5.87;;
81124;SDS011;72192;52.114;5.424;2024-03-06T16:23:57;15.32;;;6.22;;
81124;SDS011;72192;52.114;5.424;2024-03-06T16:26:27;13.68;;;5.97;;
81124;SDS011;72192;52.114;5.424;2024-03-06T16:31:37;13.15;;;6.68;;
81124;SDS011;72192;52.114;5.424;2024-03-06T16:34:04;14.63;;;6.18;;
81124;SDS011;72192;52.114;5.424;2024-03-06T16:36:33;12.65;;;5.97;;
81124;SDS011;72192;52.114;5.424;2024-03-06T16:39:00;13.07;;;5.93;;
81124;SDS011;72192;52.114;5.424;2024-03-06T16:44:14;11.80;;;5.57;;
81124;SDS011;72192;52.114;5.424;2024-03-06T16:46:43;12.88;;;6.30;;
81124;SDS011;72192;52.114;5.424;2024-03-06T16:51:56;13.82;;;6.43;;
81124;SDS011;72192;52.114;5.424;2024-03-06T16:54:23;15.10;;;6.13;;
81124;SDS011;72192;52.114;5.424;2024-03-06T16:56:50;14.13;;;6.78;;
81124;SDS011;72192;52.114;5.424;2024-03-06T17:04:33;14.80;;;6.50;;
81124;SDS011;72192;52.114;5.424;2024-03-06T17:07:04;13.90;;;7.22;;
81124;SDS011;72192;52.114;5.424;2024-03-06T17:09:39;14.10;;;6.13;;
81124;SDS011;72192;52.114;5.424;2024-03-06T17:12:11;12.70;;;6.50;;
81124;SDS011;72192;52.114;5.424;2024-03-06T17:14:39;14.65;;;6.80;;
81124;SDS011;72192;52.114;5.424;2024-03-06T17:17:06;18.63;;;7.03;;
81124;SDS011;72192;52.114;5.424;2024-03-06T17:22:03;13.98;;;6.15;;
81124;SDS011;72192;52.114;5.424;2024-03-06T17:24:32;12.82;;;5.45;;
81124;SDS011;72192;52.114;5.424;2024-03-06T17:27:00;11.17;;;6.10;;
81124;SDS011;72192;52.114;5.424;2024-03-06T17:29:30;12.43;;;5.88;;
81124;SDS011;72192;52.114;5.424;2024-03-06T17:34:33;13.43;;;6.20;;
81124;SDS011;72192;52.114;5.424;2024-03-06T17:37:01;14.35;;;6.28;;
81124;SDS011;72192;52.114;5.424;2024-03-06T17:42:00;15.63;;;7.18;;
81124;SDS011;72192;52.114;5.424;2024-03-06T17:44:37;15.73;;;7.37;;
81124;SDS011;72192;52.114;5.424;2024-03-06T17:47:06;17.13;;;6.63;;
81124;SDS011;72192;52.114;5.424;2024-03-06T17:49:44;14.15;;;6.13;;
81124;SDS011;72192;52.114;5.424;2024-03-06T17:52:40;17.10;;;6.95;;
81124;SDS011;72192;52.114;5.424;2024-03-06T17:55:09;16.75;;;7.28;;
81124;SDS011;72192;52.114;5.424;2024-03-06T17:57:44;15.90;;;7.30;;
81124;SDS011;72192;52.114;5.424;2024-03-06T18:00:16;18.02;;;8.38;;
81124;SDS011;72192;52.114;5.424;2024-03-06T18:02:45;17.77;;;7.80;;
81124;SDS011;72192;52.114;5.424;2024-03-06T18:05:15;21.45;;;8.23;;